Indian Springs, Nevada Weather observations

Data are for observation ending at time listed.
 Day   Time    Ave.   Ave.  Ave.  Vector   Max.   Stn.    Total    Solar   Ave.  
  of    of     Air    Rel.  Wind   Wind    Wind   Baro.  Precip.   Rad.    Soil  
Year   Day     Temp.  Hum.  Speed  Dir.    Gust   Pres.                    Temp. 
2016   (PST)    F      %     mph   deg.    mph     mb.     in.     W/m2     F   
------------------------------------------------------------------------------
 239   18:20   83.9    26    3.5    69      9.9   903.9    0.00       3    93.4
 239   18:30   83.5    25    3.1    83      6.3   904.0    0.00       1    93.2
 239   18:40   83.1    25    2.8    89      4.9   904.0    0.00       0    92.9
 239   18:50   83.3    24    1.6   107      6.2   904.0    0.00       0    92.7
 239   19:00   83.6    24    1.6   109      9.3   904.1    0.00       0    92.4
 239   19:10   83.9    24    3.8   101      9.8   904.2    0.00       0    92.2
 239   19:20   83.8    25    1.7   124      6.4   904.3    0.00       0    91.9
 239   19:30   83.8    25    1.8   142      5.8   904.4    0.00       0    91.7
 239   19:40   83.8    24    0.9   124      4.1   904.4    0.00       0    91.5
 239   19:50   83.2    25    1.5   317      3.4   904.5    0.00       0    91.3
 239   20:00   82.4    27    0.6     1      1.9   904.5    0.00       0    91.1
 239   20:10   81.5    27    2.7    77      7.1   904.5    0.00       0    90.8
 239   20:20   80.6    29    3.5    76      7.9   904.5    0.00       0    90.7
 239   20:30   79.9    29    3.6    86      8.0   904.6    0.00       0    90.5
 239   20:40   79.3    29    2.6    84      5.3   904.5    0.00       0    90.3
 239   20:50   79.4    29    2.3    71      6.7   904.5    0.00       0    90.1
 239   21:00   79.5    28    3.3    87      6.4   904.6    0.00       0    89.9
 239   21:10   78.9    29    2.4    88      7.8   904.6    0.00       0    89.7
 239   21:20   79.0    29    2.9    97      9.2   904.7    0.00       0    89.6
 239   21:30   78.8    29    4.0   100      9.7   904.5    0.00       0    89.4
 239   21:40   78.6    29    2.0   102      5.7   904.6    0.00       0    89.3
 239   21:50   78.9    29    2.9   100      8.1   904.4    0.00       0    89.1
 239   22:00   78.7    30    2.6    65      4.8   904.4    0.00       0    88.9
 239   22:10   77.2    33    4.1    77      8.4   904.4    0.00       0    88.7
 239   22:20   76.4    36    3.9    94      7.2   904.3    0.00       0    88.5
 239   22:30   76.4    35    3.3    94      6.1   904.2    0.00       0    88.4
 239   22:40   76.8    33    0.8   108      2.6   904.2    0.00       0    88.2
 239   22:50   77.6    30    1.7   213      4.9   904.4    0.00       0    88.1
 239   23:00   76.6    33    2.1   349      3.9   904.5    0.00       0    87.9
 239   23:10   76.2    32    1.4   353      3.7   904.6    0.00       0    87.7
 239   23:20   76.6    31    1.5   355      3.4   904.4    0.00       0    87.6
 239   23:30   77.0    30    0.9    51      2.6   904.6    0.00       0    87.5
 239   23:40   76.8    31    1.0   123      2.9   904.5    0.00       0    87.3
 239   23:50   76.5    32    1.6   143      4.4   904.6    0.00       0    87.2
 240    0:00   76.3    36    2.4   113      9.0   904.6    0.00       0    87.0
 240    0:10   76.0    37    1.7   126      7.0   904.5    0.00       0    86.9
 240    0:20   75.7    37    2.1   193      4.4   904.7    0.00       0    86.7
 240    0:30   75.1    38    1.4   102      5.1   904.6    0.00       0    86.6
 240    0:40   74.8    40    1.4   105      4.0   904.7    0.00       0    86.5
 240    0:50   74.5    40    0.6   169      2.1   904.6    0.00       0    86.4
 240    1:00   74.2    41    0.5   325      1.7   904.6    0.00       0    86.3
 240    1:10   73.1    42    1.4   329      3.2   904.7    0.00       0    86.1
 240    1:20   72.7    40    0.5    71      1.6   904.5    0.00       0    86.0
 240    1:30   72.6    40    1.0   153      2.5   904.7    0.00       0    85.9
 240    1:40   72.1    41    1.9    64      5.0   904.7    0.00       0    85.7
 240    1:50   72.9    40    2.2   116      6.5   905.2    0.00       0    85.6
 240    2:00   75.0    37    2.5   146      8.2   905.1    0.00       0    85.4
 240    2:10   75.9    34    6.5   100     13.8   905.4    0.00       0    85.3
 240    2:20   75.9    35    5.9   106     11.5   905.5    0.00       0    85.2
 240    2:30   74.6    42    2.5   110      9.5   905.6    0.00       0    85.1
 240    2:40   73.6    43    2.6    98      6.7   905.8    0.00       0    85.0
 240    2:50   73.0    46    2.3    88      4.4   905.8    0.00       0    84.9
 240    3:00   71.9    49    3.1    97      5.3   905.8    0.00       0    84.8
 240    3:10   71.8    50    1.9    71      5.0   905.7    0.00       0    84.7
 240    3:20   72.5    47    2.9    97      7.9   905.8    0.00       0    84.6
 240    3:30   74.6    37    3.9   143     11.0   905.8    0.00       0    84.4
 240    3:40   75.0    36    4.8   148     13.6   905.8    0.00       0    84.3
 240    3:50   74.6    37    4.4   141     10.7   906.0    0.00       0    84.1
 240    4:00   74.3    38    3.0   136     13.2   905.9    0.00       0    84.0
 240    4:10   74.0    39    3.0   106     14.3   905.9    0.00       0    83.9
 240    4:20   73.7    40    5.1   103     13.9   906.1    0.00       0    83.8
 240    4:30   73.4    40    6.9   101     15.3   906.0    0.00       0    83.6
 240    4:40   73.1    41    7.5    99     18.3   906.1    0.00       0    83.5
 240    4:50   72.6    42    7.8   105     18.0   906.1    0.00       0    83.4
 240    5:00   72.3    43    7.0   104     14.2   906.1    0.00       0    83.4
 240    5:10   72.3    42    4.8   108     14.7   906.2    0.00       0    83.2
 240    5:20   72.9    41    2.8   112      9.9   906.2    0.00       2    83.2
 240    5:30   73.7    38    2.3   111      9.6   906.4    0.00       7    83.0
 240    5:40   74.1    37    2.8   128      8.8   906.4    0.00      14    83.0
 240    5:50   73.9    38    3.0   128      7.4   906.6    0.00      21    82.9
 240    6:00   73.6    39    3.5   129      9.7   906.7    0.00      30    82.8
 240    6:10   73.3    40    3.9   136     12.9   906.9    0.00      36    82.7
 240    6:20   73.2    40    3.5   120     14.9   907.0    0.00      43    82.6
 240    6:30   73.3    40    3.7   125     11.6   907.1    0.00      73    82.5
 240    6:40   73.8    40    3.5   120      9.2   907.3    0.00     187    82.5
 240    6:50   74.4    39    5.0   108     15.2   907.6    0.00     261    82.4
 240    7:00   74.6    39    8.8   103     18.0   907.8    0.00     360    82.3
 240    7:10   75.4    38    8.0   106     17.9   907.9    0.00     405    82.2
 240    7:20   75.9    37    6.9   105     19.7   908.1    0.00     448    82.2
 240    7:30   76.1    37    8.2    95     16.4   908.3    0.00     503    82.2
 240    7:40   76.6    36    8.4    99     15.5   908.4    0.00     533    82.3
 240    7:50   77.4    35    7.9   102     18.0   908.5    0.00     539    82.3
 240    8:00   77.8    34    8.1    98     16.9   908.4    0.00     581    82.4
 240    8:10   78.1    34    8.5   101     16.8   908.5    0.00     600    82.6
 240    8:20   78.3    33    8.8    95     15.9   908.6    0.00     624    82.7
 240    8:30   78.3    35    7.2    86     14.9   908.7    0.00     653    82.9
 240    8:40   77.8    37    7.8    87     16.4   908.7    0.00     681    83.1
 240    8:50   77.4    38    8.0    81     15.6   908.8    0.00     710    83.4
 240    9:00   78.0    36    7.1    82     12.5   908.8    0.00     740    83.6
 240    9:10   78.6    35    7.0    85     13.4   909.0    0.00     768    83.8
 240    9:20   79.2    33    7.1    93     13.5   909.1    0.00     792    84.1
 240    9:30   79.8    32    6.3    88     13.7   909.2    0.00     818    84.4
 240    9:40   80.6    30    6.2    87     14.0   909.2    0.00     840    84.7
 240    9:50   80.9    30    6.1    80     11.8   909.3    0.00     863    85.0
 240   10:00   81.8    29    5.5    89     11.3   909.3    0.00     881    85.4
 240   10:10   82.4    28    5.4    78     11.6   909.3    0.00     900    85.7
 240   10:20   82.6    28    5.5    89     11.5   909.4    0.00     915    86.1
 240   10:30   83.0    27    4.7    83     10.9   909.3    0.00     928    86.5
 240   10:40   83.4    26    3.7    97     11.2   909.3    0.00     938    86.9
 240   10:50   84.5    25    3.0    83      6.6   909.3    0.00     949    87.3
 240   11:00   84.4    25    4.6    76     12.1   909.2    0.00     960    87.7
 240   11:10   83.6    27    6.8    93     14.5   909.2    0.00     968    88.0
 240   11:20   83.9    27    5.7    91     11.7   909.1    0.00     974    88.4
 240   11:30   83.6    28    7.3    80     14.2   909.0    0.00     980    88.8
 240   11:40   84.1    27    6.1    86     14.2   908.9    0.00     982    89.2
 240   11:50   83.9    28    6.0    89     14.2   908.9    0.00     982    89.5
 240   12:00   84.0    28    6.7    95     16.0   908.8    0.00     981    89.8
 240   12:10   83.6    28    7.8    99     18.0   908.7    0.00     980    90.2
 240   12:20   84.2    27    7.7    98     18.9   908.6    0.00     973    90.5
 240   12:30   84.3    27    8.2    93     14.8   908.3    0.00     967    90.9
 240   12:40   84.6    27    7.2    98     17.1   908.4    0.00     938    91.3
 240   12:50   84.4    27    8.3    95     17.3   908.3    0.00     946    91.7
 240   13:00   84.5    27    7.8    94     15.9   908.3    0.00     915    92.0
 240   13:10   84.3    27    8.3    98     19.6   908.0    0.00     927    92.4
 240   13:20   84.7    27    8.3   101     15.4   907.8    0.00     894    92.8
 240   13:30   84.7    27    8.1   100     16.1   907.7    0.00     889    93.1
 240   13:40   85.4    26    6.9   100     14.8   907.6    0.00     841    93.4
 240   13:50   85.2    26    7.6    96     14.6   907.5    0.00     786    93.7
 240   14:00   85.9    25    7.4    91     17.2   907.5    0.00     707    94.0
 240   14:10   85.2    26    8.7    93     17.0   907.3    0.00     232    94.3
 240   14:20   86.4    25    7.0    90     16.1   907.2    0.00     398    94.6
 240   14:30   85.9    25    9.2    92     18.1   907.2    0.00     675    94.8
 240   14:40   85.6    26    8.0    98     16.1   907.1    0.00     656    94.9
 240   14:50   85.6    26    7.2    94     15.2   906.9    0.00     581    95.1
 240   15:00   86.0    25    5.0    98     13.4   906.9    0.00     397    95.2
 240   15:10   85.9    25    6.4   101     11.8   906.8    0.00     682    95.2
 240   15:20   86.6    25    7.5    99     17.0   906.8    0.00     645    95.3
 240   15:30   86.0    26    7.6    97     20.0   906.7    0.00     585    95.3
 240   15:40   86.5    25    7.6    99     18.4   906.9    0.00     559    95.3
 240   15:50   85.7    26    8.0    98     17.2   906.7    0.00     393    95.4
 240   16:00   85.2    26    7.7   101     20.0   906.7    0.00     356    95.4
 240   16:10   85.2    27    7.4   104     14.1   906.5    0.00     297    95.5
 240   16:20   84.8    27    6.7    99     15.1   906.6    0.00     233    95.5
 240   16:30   84.2    28    8.7   100     19.1   906.5    0.00     186    95.5
 240   16:40   83.6    28    8.2   101     17.8   906.4    0.00     148    95.5
 240   16:50   82.7    29    8.6   102     19.1   906.4    0.00     128    95.4
 240   17:00   82.3    29    7.8   105     14.7   906.3    0.00     113    95.4
 240   17:10   82.3    29    7.0   108     14.2   906.2    0.00     118    95.3
 240   17:20   82.3    29    5.7   105     13.7   905.9    0.00     108    95.1
 240   17:30   82.5    29    7.7   102     16.1   905.9    0.00      86    94.9
 240   17:40   82.2    29    7.4   103     17.0   905.9    0.00      64    94.8
 240   17:50   81.8    29    7.0   105     15.1   905.9    0.00      51    94.6
 240   18:00   81.3    30    6.7   105     15.2   905.9    0.00      27    94.4
 240   18:10   80.7    30    7.4   100     15.6   905.9    0.00      14    94.3

Return to Indian Springs, Nevada graphs page.


Western Regional Climate Center,wrcc@dri.edu